Time;durP1;ratioP1;P1;durP2;ratioP2;P2;SDS_P1;SDS_P2;PMS_P1;PMS_P2;Temp;Humidity;BMP_temperature;BMP_pressure;BME280_temperature;BME280_humidity;BME280_pressure;Samples;Min_cycle;Max_cycle;Signal;HPM_P1;HPM_P2
2020/12/15 00:00:09;;;;;;;28.83;12.90;;;1.50;99.90;;;;;;5069611;28;20189;-55
2020/12/15 00:02:35;;;;;;;35.03;14.13;;;1.50;99.90;;;;;;5058446;28;20219;-54
2020/12/15 00:05:02;;;;;;;39.70;14.67;;;1.50;99.90;;;;;;5049595;28;20731;-54
2020/12/15 00:07:28;;;;;;;27.80;14.00;;;1.50;99.90;;;;;;5068447;28;21039;-57
2020/12/15 00:09:53;;;;;;;32.77;14.30;;;1.50;99.90;;;;;;5065584;28;20432;-52
2020/12/15 00:12:19;;;;;;;31.57;12.87;;;1.50;99.90;;;;;;5064694;28;20627;-52
2020/12/15 00:14:45;;;;;;;33.03;13.50;;;1.50;99.90;;;;;;5067261;28;20184;-53
2020/12/15 00:17:11;;;;;;;31.97;12.60;;;1.50;99.90;;;;;;5048392;28;20488;-53
2020/12/15 00:19:36;;;;;;;22.47;12.03;;;1.50;99.90;;;;;;5071098;28;20529;-55
2020/12/15 00:22:05;;;;;;;26.47;11.47;;;1.60;99.90;;;;;;5060961;28;20200;-54
2020/12/15 00:24:31;;;;;;;24.50;11.70;;;1.60;99.90;;;;;;5066647;28;20601;-51
2020/12/15 00:26:56;;;;;;;21.90;11.13;;;1.60;99.90;;;;;;5066316;28;20431;-54
2020/12/15 00:29:22;;;;;;;19.17;11.37;;;1.60;99.90;;;;;;5067622;28;20478;-52
2020/12/15 00:31:48;;;;;;;20.07;11.73;;;1.60;99.90;;;;;;5066879;28;20295;-53
2020/12/15 00:34:13;;;;;;;18.43;11.30;;;1.60;99.90;;;;;;5046090;28;20200;-54
2020/12/15 00:36:39;;;;;;;21.17;11.43;;;1.60;99.90;;;;;;5065487;28;20721;-52
2020/12/15 00:39:05;;;;;;;19.53;10.93;;;1.60;99.90;;;;;;5050007;28;20183;-55
2020/12/15 00:41:30;;;;;;;19.90;11.03;;;1.60;99.90;;;;;;5067650;28;20216;-54
2020/12/15 00:43:56;;;;;;;15.90;9.90;;;1.60;99.90;;;;;;5067900;28;20176;-53
2020/12/15 00:46:22;;;;;;;19.60;10.70;;;1.60;99.90;;;;;;5063200;28;20216;-54
2020/12/15 00:48:47;;;;;;;15.47;9.50;;;1.60;99.90;;;;;;5065307;28;20173;-54
2020/12/15 00:51:17;;;;;;;16.73;10.77;;;1.60;99.90;;;;;;5067931;28;20209;-54
2020/12/15 00:53:47;;;;;;;19.33;9.83;;;1.70;99.90;;;;;;5059739;28;20279;-54
2020/12/15 00:56:14;;;;;;;19.33;10.73;;;1.70;99.90;;;;;;5068848;28;20519;-54
2020/12/15 00:58:40;;;;;;;19.33;10.90;;;1.70;99.90;;;;;;5064567;28;20458;-53
2020/12/15 01:01:07;;;;;;;21.70;10.70;;;1.70;99.90;;;;;;5064029;28;20572;-54
2020/12/15 01:03:33;;;;;;;17.60;10.43;;;1.70;99.90;;;;;;5066189;28;20435;-56
2020/12/15 01:05:59;;;;;;;17.33;9.00;;;1.70;99.90;;;;;;5067642;28;20445;-54
2020/12/15 01:08:25;;;;;;;17.10;9.37;;;1.70;99.90;;;;;;5065745;28;22413;-53
2020/12/15 01:10:51;;;;;;;13.63;8.30;;;1.70;99.90;;;;;;5058383;28;20431;-52
2020/12/15 01:13:17;;;;;;;15.40;8.93;;;1.70;99.90;;;;;;5068063;28;20259;-55
2020/12/15 01:15:43;;;;;;;16.90;8.90;;;1.70;99.90;;;;;;5065756;28;20540;-54
2020/12/15 01:18:09;;;;;;;17.57;10.27;;;1.70;99.90;;;;;;5063160;28;20191;-53
2020/12/15 01:20:34;;;;;;;17.80;10.23;;;1.70;99.90;;;;;;5065493;28;20209;-55
2020/12/15 01:23:00;;;;;;;19.70;11.90;;;1.70;99.90;;;;;;5046568;28;20262;-52
2020/12/15 01:25:25;;;;;;;17.93;11.10;;;1.70;99.90;;;;;;5063699;28;20188;-54
2020/12/15 01:27:51;;;;;;;20.87;12.20;;;1.70;99.90;;;;;;5061005;28;20184;-53
2020/12/15 01:30:17;;;;;;;19.13;11.20;;;1.70;99.90;;;;;;5067546;28;20299;-53
2020/12/15 01:32:43;;;;;;;20.53;11.13;;;1.70;99.90;;;;;;5067179;28;20220;-53
2020/12/15 01:35:09;;;;;;;21.10;12.27;;;1.80;99.90;;;;;;5064953;28;20977;-52
2020/12/15 01:37:35;;;;;;;21.37;11.70;;;1.80;99.90;;;;;;5065120;28;20187;-54
2020/12/15 01:40:02;;;;;;;20.50;11.10;;;1.70;99.90;;;;;;5066290;28;20185;-54
2020/12/15 01:42:27;;;;;;;17.20;9.70;;;1.70;99.90;;;;;;5047824;28;20452;-54
2020/12/15 01:44:53;;;;;;;16.43;9.30;;;1.70;99.90;;;;;;5064199;28;20425;-55
2020/12/15 01:47:19;;;;;;;20.03;10.50;;;1.70;99.90;;;;;;5067874;28;20176;-53
2020/12/15 01:49:45;;;;;;;19.03;9.30;;;1.70;99.90;;;;;;5068156;28;20685;-53
2020/12/15 01:52:13;;;;;;;19.90;9.80;;;1.70;99.90;;;;;;5058001;28;20887;-51
2020/12/15 01:54:40;;;;;;;14.17;8.67;;;1.70;99.90;;;;;;5062670;28;20837;-52
2020/12/15 01:57:06;;;;;;;13.93;9.50;;;1.70;99.90;;;;;;5068071;28;20418;-51
2020/12/15 01:59:32;;;;;;;14.40;9.33;;;1.70;99.90;;;;;;5066358;28;20427;-52
2020/12/15 02:01:57;;;;;;;26.47;9.97;;;1.70;99.90;;;;;;5059082;28;20896;-54
2020/12/15 02:04:23;;;;;;;17.57;9.73;;;1.70;99.90;;;;;;5064596;28;20178;-53
2020/12/15 02:06:51;;;;;;;18.43;9.40;;;1.60;99.90;;;;;;5067902;28;20268;-54
2020/12/15 02:09:18;;;;;;;19.60;8.90;;;1.60;99.90;;;;;;5067241;28;20453;-55
2020/12/15 02:11:44;;;;;;;15.67;9.17;;;1.60;99.90;;;;;;5067865;28;20529;-54
2020/12/15 02:14:11;;;;;;;13.10;7.30;;;1.60;99.90;;;;;;5065386;28;20885;-54
2020/12/15 02:16:41;;;;;;;10.83;6.13;;;1.60;99.90;;;;;;5069316;28;20800;-53
2020/12/15 02:19:14;;;;;;;11.80;6.07;;;1.60;99.90;;;;;;5064894;28;20431;-53
2020/12/15 02:21:54;;;;;;;10.00;5.83;;;1.70;99.90;;;;;;5068559;28;20452;-53
2020/12/15 02:24:19;;;;;;;10.80;6.50;;;1.70;99.90;;;;;;5061878;28;20454;-54
2020/12/15 02:26:45;;;;;;;14.97;7.43;;;1.70;99.90;;;;;;5062010;28;20437;-54
2020/12/15 02:29:12;;;;;;;11.00;6.10;;;1.80;99.90;;;;;;5065278;28;20549;-54
2020/12/15 02:31:37;;;;;;;12.00;5.80;;;1.80;99.90;;;;;;5067225;28;22045;-54
2020/12/15 02:34:03;;;;;;;8.47;6.07;;;1.90;99.90;;;;;;5068718;28;20981;-53
2020/12/15 02:36:30;;;;;;;14.43;7.07;;;1.90;99.90;;;;;;5066908;28;20190;-52
2020/12/15 02:39:11;;;;;;;11.63;6.60;;;1.90;99.90;;;;;;5067179;28;20242;-52
2020/12/15 02:41:37;;;;;;;16.20;7.97;;;2.00;99.90;;;;;;5064696;28;20473;-52
2020/12/15 02:44:04;;;;;;;20.07;10.90;;;2.00;99.90;;;;;;5060239;28;20441;-53
2020/12/15 02:46:30;;;;;;;17.77;11.03;;;2.00;99.90;;;;;;5062648;28;20429;-53
2020/12/15 02:48:56;;;;;;;19.03;10.70;;;2.00;99.90;;;;;;5041993;28;20514;-54
2020/12/15 02:51:23;;;;;;;22.10;10.70;;;2.00;99.90;;;;;;5046532;28;20223;-54
2020/12/15 02:53:50;;;;;;;20.97;11.07;;;2.00;99.90;;;;;;5063341;28;20551;-54
2020/12/15 02:56:23;;;;;;;21.63;10.77;;;2.00;99.90;;;;;;5062047;28;20867;-54
2020/12/15 02:58:49;;;;;;;21.50;11.40;;;2.00;99.90;;;;;;5044845;28;20436;-53
2020/12/15 03:01:16;;;;;;;15.43;8.47;;;2.00;99.90;;;;;;5065368;28;20500;-53
2020/12/15 03:03:42;;;;;;;15.10;8.60;;;2.00;99.90;;;;;;5064743;28;20493;-54
2020/12/15 03:06:08;;;;;;;10.10;6.70;;;2.00;99.90;;;;;;5063958;28;20423;-53
2020/12/15 03:08:33;;;;;;;13.60;7.13;;;2.00;99.90;;;;;;5066208;28;20944;-52
2020/12/15 03:11:00;;;;;;;13.17;7.17;;;2.00;99.90;;;;;;5063957;28;20451;-53
2020/12/15 03:13:26;;;;;;;9.03;6.00;;;2.00;99.90;;;;;;5068912;28;20592;-53
2020/12/15 03:15:52;;;;;;;8.60;6.27;;;2.00;99.90;;;;;;5071334;28;20519;-53
2020/12/15 03:18:18;;;;;;;9.63;6.23;;;2.00;99.90;;;;;;5068605;28;20867;-53
2020/12/15 03:20:49;;;;;;;7.87;5.50;;;2.00;99.90;;;;;;5065157;28;20867;-54
2020/12/15 03:23:19;;;;;;;11.10;6.50;;;1.90;99.90;;;;;;5069705;28;20757;-53
2020/12/15 03:25:44;;;;;;;9.90;5.93;;;2.00;99.90;;;;;;5069426;28;20484;-53
2020/12/15 03:28:10;;;;;;;8.00;5.50;;;2.00;99.90;;;;;;5064827;28;20424;-53
2020/12/15 03:30:36;;;;;;;11.80;7.10;;;2.00;99.90;;;;;;5065381;28;20727;-51
2020/12/15 03:33:03;;;;;;;11.40;6.20;;;2.00;99.90;;;;;;5067146;28;20214;-53
2020/12/15 03:35:29;;;;;;;9.80;6.40;;;2.00;99.90;;;;;;5067799;28;20472;-53
2020/12/15 03:37:56;;;;;;;9.83;6.33;;;2.00;99.90;;;;;;5065204;28;20447;-52
2020/12/15 03:40:23;;;;;;;11.07;7.10;;;2.00;99.90;;;;;;5069548;28;20444;-53
2020/12/15 03:42:49;;;;;;;15.70;7.57;;;2.00;99.90;;;;;;5067805;28;20467;-53
2020/12/15 03:45:15;;;;;;;11.80;6.93;;;2.10;99.90;;;;;;5066424;28;20431;-54
2020/12/15 03:47:41;;;;;;;9.90;6.60;;;2.00;99.90;;;;;;5064616;28;20448;-53
2020/12/15 03:50:09;;;;;;;11.00;6.57;;;2.10;99.90;;;;;;5069198;28;20933;-52
2020/12/15 03:52:36;;;;;;;10.03;6.17;;;2.10;99.90;;;;;;5070337;28;21004;-53
2020/12/15 03:55:02;;;;;;;10.07;6.33;;;2.00;99.90;;;;;;5065035;28;20486;-52
2020/12/15 03:57:29;;;;;;;10.23;6.30;;;2.10;99.90;;;;;;5067403;28;20795;-51
2020/12/15 03:59:57;;;;;;;10.70;6.40;;;2.10;99.90;;;;;;5069237;28;20443;-52
2020/12/15 04:02:23;;;;;;;10.53;6.47;;;2.10;99.90;;;;;;5068594;28;20836;-53
2020/12/15 04:04:49;;;;;;;9.37;6.03;;;2.10;99.90;;;;;;5068748;28;20582;-50
2020/12/15 04:07:15;;;;;;;11.30;6.80;;;2.10;99.90;;;;;;5069943;28;20180;-54
2020/12/15 04:09:40;;;;;;;9.87;6.03;;;2.10;99.90;;;;;;5064752;28;20474;-52
2020/12/15 04:12:06;;;;;;;10.37;6.77;;;2.10;99.90;;;;;;5067499;28;20207;-52
2020/12/15 04:14:32;;;;;;;11.20;7.00;;;2.10;99.90;;;;;;5068877;28;20273;-53
2020/12/15 04:16:57;;;;;;;11.83;6.63;;;2.10;99.90;;;;;;5070640;28;20531;-52
2020/12/15 04:19:23;;;;;;;9.30;6.57;;;2.10;99.90;;;;;;5069251;28;20192;-53
2020/12/15 04:21:49;;;;;;;11.23;6.87;;;2.10;99.90;;;;;;5071057;28;20215;-52
2020/12/15 04:24:14;;;;;;;13.27;7.87;;;2.20;99.90;;;;;;5070303;28;20232;-53
2020/12/15 04:26:40;;;;;;;14.73;7.17;;;2.20;99.90;;;;;;5052737;28;20199;-55
2020/12/15 04:29:05;;;;;;;12.40;7.97;;;2.30;99.90;;;;;;5048740;28;20189;-53
2020/12/15 04:31:31;;;;;;;11.83;7.70;;;2.30;99.90;;;;;;5061005;28;20233;-53
2020/12/15 04:33:57;;;;;;;11.90;7.50;;;2.30;99.90;;;;;;5067580;28;20625;-52
2020/12/15 04:36:24;;;;;;;10.60;6.77;;;2.30;99.90;;;;;;5069645;28;20499;-53
2020/12/15 04:38:49;;;;;;;9.30;6.20;;;2.30;99.90;;;;;;5067240;28;20183;-56
2020/12/15 04:41:16;;;;;;;11.73;7.03;;;2.30;99.90;;;;;;5046585;28;20466;-53
2020/12/15 04:43:42;;;;;;;11.30;5.90;;;2.30;99.90;;;;;;5064932;28;20169;-53
2020/12/15 04:46:11;;;;;;;11.37;6.37;;;2.30;99.90;;;;;;5067871;28;20432;-54
2020/12/15 04:48:43;;;;;;;11.03;6.47;;;2.20;99.90;;;;;;5064488;28;20817;-53
2020/12/15 04:51:12;;;;;;;12.60;6.87;;;2.20;99.90;;;;;;5062894;28;20868;-54
2020/12/15 04:53:44;;;;;;;8.97;6.50;;;2.30;99.90;;;;;;5061239;28;20453;-54
2020/12/15 04:56:33;;;;;;;10.73;6.33;;;2.30;99.90;;;;;;5065032;28;20538;-54
2020/12/15 04:58:59;;;;;;;12.33;6.60;;;2.30;99.90;;;;;;5067273;28;20511;-55
2020/12/15 05:01:28;;;;;;;9.00;5.70;;;2.30;99.90;;;;;;5068147;28;20447;-55
2020/12/15 05:03:54;;;;;;;9.10;6.00;;;2.30;99.90;;;;;;5063798;28;20415;-54
2020/12/15 05:06:28;;;;;;;9.77;6.33;;;2.20;99.90;;;;;;5064259;28;20427;-55
2020/12/15 05:08:55;;;;;;;14.00;6.40;;;2.30;99.90;;;;;;5060201;28;20487;-55
2020/12/15 05:13:55;;;;;;;14.20;8.27;;;2.30;99.90;;;;;;5044563;28;20471;-64
2020/12/15 05:16:21;;;;;;;12.50;7.90;;;2.30;99.90;;;;;;5048238;28;20436;-64
2020/12/15 05:18:47;;;;;;;11.33;7.17;;;2.40;99.90;;;;;;5049476;28;20522;-64
2020/12/15 05:21:17;;;;;;;14.67;8.43;;;2.40;99.90;;;;;;5049270;28;20186;-63
2020/12/15 05:23:50;;;;;;;18.43;8.13;;;2.40;99.90;;;;;;5047352;28;20531;-63
2020/12/15 05:26:26;;;;;;;14.30;8.37;;;2.50;99.90;;;;;;5043559;28;20528;-60
2020/12/15 05:29:05;;;;;;;12.00;8.40;;;2.50;99.90;;;;;;5028719;28;21083;-60
2020/12/15 05:31:32;;;;;;;14.60;9.00;;;2.50;99.90;;;;;;5047673;28;21423;-57
2020/12/15 05:33:59;;;;;;;15.50;8.70;;;2.50;99.90;;;;;;5048342;28;20420;-59
2020/12/15 05:36:25;;;;;;;14.23;7.30;;;2.50;99.90;;;;;;5048759;28;20793;-62
2020/12/15 05:39:08;;;;;;;11.23;7.50;;;2.50;99.90;;;;;;5047341;28;20422;-65
2020/12/15 05:41:35;;;;;;;14.43;7.17;;;2.50;99.90;;;;;;5044695;28;20467;-65
2020/12/15 05:44:02;;;;;;;13.67;7.07;;;2.50;99.90;;;;;;5031344;28;20467;-62
2020/12/15 05:46:29;;;;;;;9.67;6.57;;;2.40;99.90;;;;;;5031351;28;20490;-64
2020/12/15 05:49:04;;;;;;;11.70;6.80;;;2.40;99.90;;;;;;5029586;28;20857;-63
2020/12/15 05:51:43;;;;;;;12.83;7.53;;;2.40;99.90;;;;;;5031616;28;20520;-64
2020/12/15 05:54:11;;;;;;;15.53;7.37;;;2.40;99.90;;;;;;5048933;28;20439;-64
2020/12/15 05:56:38;;;;;;;10.53;6.87;;;2.40;99.90;;;;;;5045667;28;20529;-63
2020/12/15 05:59:21;;;;;;;12.40;6.87;;;2.40;99.90;;;;;;5028802;28;20426;-65
2020/12/15 06:01:51;;;;;;;9.60;6.40;;;2.40;99.90;;;;;;5049340;28;21002;-62
2020/12/15 06:04:21;;;;;;;10.47;6.50;;;2.40;99.90;;;;;;5048190;28;20435;-62
2020/12/15 06:06:48;;;;;;;12.10;7.33;;;2.40;99.90;;;;;;5028891;28;20454;-64
2020/12/15 06:09:16;;;;;;;13.60;6.93;;;2.40;99.90;;;;;;5043920;28;20431;-62
2020/12/15 06:11:45;;;;;;;12.00;7.00;;;2.40;99.90;;;;;;5049499;28;20453;-61
2020/12/15 06:14:13;;;;;;;9.33;6.23;;;2.30;99.90;;;;;;5049420;28;20899;-62
2020/12/15 06:16:40;;;;;;;10.10;6.40;;;2.30;99.90;;;;;;5046898;28;20525;-61
2020/12/15 06:19:11;;;;;;;15.20;8.37;;;2.30;99.90;;;;;;5049699;28;20441;-62
2020/12/15 06:21:49;;;;;;;14.77;8.17;;;2.30;99.90;;;;;;5046814;28;20714;-63
2020/12/15 06:24:38;;;;;;;10.70;6.63;;;2.30;99.90;;;;;;5047579;28;20425;-64
2020/12/15 06:27:06;;;;;;;13.20;7.93;;;2.30;99.90;;;;;;5043991;28;20907;-65
2020/12/15 06:29:36;;;;;;;11.53;6.90;;;2.30;99.90;;;;;;5029073;28;20440;-64
2020/12/15 06:32:08;;;;;;;12.87;7.10;;;2.40;99.90;;;;;;5027187;28;20490;-62
2020/12/15 06:34:36;;;;;;;14.90;7.53;;;2.40;99.90;;;;;;5041603;28;20442;-65
2020/12/15 06:37:10;;;;;;;12.73;7.70;;;2.40;99.90;;;;;;5045945;28;20429;-64
2020/12/15 06:39:35;;;;;;;11.70;7.37;;;2.40;99.90;;;;;;5053529;28;20519;-64
2020/12/15 06:42:06;;;;;;;13.00;6.93;;;2.40;99.90;;;;;;5047300;28;20209;-65
2020/12/15 06:44:33;;;;;;;14.30;8.03;;;2.40;99.90;;;;;;5049280;28;20175;-63
2020/12/15 06:47:02;;;;;;;13.63;8.13;;;2.40;99.90;;;;;;5052446;28;20432;-64
2020/12/15 06:49:29;;;;;;;11.90;7.50;;;2.40;99.90;;;;;;5052985;28;20753;-63
2020/12/15 06:51:56;;;;;;;11.17;7.10;;;2.40;99.90;;;;;;5051778;28;20455;-64
2020/12/15 06:54:27;;;;;;;11.73;7.13;;;2.40;99.90;;;;;;5052375;28;20431;-64
2020/12/15 06:57:01;;;;;;;13.40;7.80;;;2.40;99.90;;;;;;5053596;28;20435;-64
2020/12/15 06:59:48;;;;;;;11.53;7.30;;;2.40;99.90;;;;;;5059507;28;20495;-67
2020/12/15 07:02:17;;;;;;;10.37;6.93;;;2.40;99.90;;;;;;5049297;28;20804;-65
2020/12/15 07:04:45;;;;;;;16.43;8.30;;;2.40;99.90;;;;;;5053374;28;20718;-67
2020/12/15 07:07:12;;;;;;;12.00;7.20;;;2.40;99.90;;;;;;5052280;28;20490;-66
2020/12/15 07:09:38;;;;;;;20.60;8.67;;;2.40;99.90;;;;;;5050972;28;20843;-65
2020/12/15 07:12:14;;;;;;;20.23;9.97;;;2.40;99.90;;;;;;5030544;28;20455;-65
2020/12/15 07:14:43;;;;;;;19.40;10.30;;;2.40;99.90;;;;;;5053279;28;20808;-66
2020/12/15 07:17:08;;;;;;;17.33;10.63;;;2.40;99.90;;;;;;5049803;28;20434;-66
2020/12/15 07:19:34;;;;;;;21.00;10.90;;;2.40;99.90;;;;;;5034246;28;20440;-66
2020/12/15 07:22:06;;;;;;;24.10;10.30;;;2.40;99.90;;;;;;5045309;28;20214;-65
2020/12/15 07:24:32;;;;;;;15.80;9.87;;;2.50;99.90;;;;;;5051706;28;20173;-65
2020/12/15 07:26:59;;;;;;;14.43;8.67;;;2.40;99.90;;;;;;5051810;28;20475;-63
2020/12/15 07:29:25;;;;;;;15.63;8.60;;;2.40;99.90;;;;;;5043477;28;20430;-66
2020/12/15 07:31:51;;;;;;;18.00;9.67;;;2.50;99.90;;;;;;5048221;28;20578;-66
2020/12/15 07:34:17;;;;;;;17.63;10.23;;;2.40;99.90;;;;;;5033443;28;20187;-63
2020/12/15 07:36:46;;;;;;;21.07;10.47;;;2.50;99.90;;;;;;5034447;28;20444;-65
2020/12/15 07:39:13;;;;;;;20.53;10.83;;;2.50;99.90;;;;;;5033669;28;20924;-66
2020/12/15 07:41:38;;;;;;;23.30;10.80;;;2.50;99.90;;;;;;5033229;28;20439;-64
2020/12/15 07:44:09;;;;;;;18.40;10.93;;;2.50;99.90;;;;;;5028540;28;20439;-65
2020/12/15 07:46:36;;;;;;;18.10;10.90;;;2.60;99.90;;;;;;5012055;28;20188;-64
2020/12/15 07:49:04;;;;;;;18.73;10.13;;;2.60;99.90;;;;;;5049574;28;20458;-65
2020/12/15 07:51:33;;;;;;;20.80;11.33;;;2.60;99.90;;;;;;5041307;28;20530;-66
2020/12/15 07:53:59;;;;;;;18.17;9.37;;;2.60;99.90;;;;;;5037357;28;20432;-64
2020/12/15 07:56:28;;;;;;;24.00;12.47;;;2.60;99.90;;;;;;5050937;28;20462;-64
2020/12/15 07:58:56;;;;;;;35.70;13.03;;;2.60;99.90;;;;;;5034743;28;20682;-66
2020/12/15 08:01:31;;;;;;;27.40;14.23;;;2.70;99.90;;;;;;5043811;28;20459;-63
2020/12/15 08:04:02;;;;;;;27.00;13.03;;;2.70;99.90;;;;;;5049112;28;20424;-64
2020/12/15 08:06:30;;;;;;;25.53;14.50;;;2.70;99.90;;;;;;5048712;28;20920;-64
2020/12/15 08:09:00;;;;;;;24.07;14.10;;;2.80;99.90;;;;;;5041417;28;20464;-64
2020/12/15 08:11:27;;;;;;;26.03;13.97;;;2.80;99.90;;;;;;5043116;28;20471;-66
2020/12/15 08:13:53;;;;;;;25.07;14.67;;;2.80;99.90;;;;;;5048104;28;20429;-64
2020/12/15 08:16:19;;;;;;;29.03;14.30;;;2.90;99.90;;;;;;5033207;28;20434;-65
2020/12/15 08:18:46;;;;;;;23.07;12.83;;;2.90;99.90;;;;;;5051609;28;20949;-64
2020/12/15 08:21:17;;;;;;;17.73;11.10;;;3.00;99.90;;;;;;5045955;28;20841;-65
2020/12/15 08:23:54;;;;;;;24.13;10.47;;;3.00;99.90;;;;;;5032329;28;21054;-64
2020/12/15 08:26:21;;;;;;;25.23;10.60;;;3.00;99.90;;;;;;5039199;28;21012;-64
2020/12/15 08:28:47;;;;;;;20.20;9.30;;;3.00;99.90;;;;;;5047021;28;20432;-64
2020/12/15 08:31:14;;;;;;;14.87;8.63;;;3.00;99.90;;;;;;5050734;28;20457;-64
2020/12/15 08:33:40;;;;;;;18.93;8.53;;;2.90;99.90;;;;;;5050636;28;20455;-63
2020/12/15 08:36:11;;;;;;;16.43;9.40;;;2.90;99.90;;;;;;5050755;28;20420;-63
2020/12/15 08:38:42;;;;;;;20.33;8.90;;;2.90;99.90;;;;;;5050923;28;20424;-64
2020/12/15 08:41:14;;;;;;;13.93;8.20;;;3.00;99.90;;;;;;5052087;28;20409;-64
2020/12/15 08:43:40;;;;;;;14.90;8.07;;;3.00;99.90;;;;;;5043767;28;20486;-63
2020/12/15 08:46:17;;;;;;;22.13;7.17;;;3.00;99.90;;;;;;5040930;28;20435;-63
2020/12/15 08:48:44;;;;;;;14.33;8.83;;;3.00;99.90;;;;;;5052898;28;20843;-63
2020/12/15 08:51:14;;;;;;;14.23;7.53;;;3.00;99.90;;;;;;5052934;28;20456;-63
2020/12/15 08:53:40;;;;;;;12.83;7.57;;;3.00;99.90;;;;;;5030991;28;20445;-63
2020/12/15 08:56:14;;;;;;;15.00;8.87;;;2.90;99.90;;;;;;5048003;28;20485;-63
2020/12/15 08:58:40;;;;;;;19.73;9.50;;;2.90;99.90;;;;;;5051394;28;20791;-63
2020/12/15 09:01:07;;;;;;;16.00;8.37;;;3.00;99.90;;;;;;5050557;28;20435;-63
2020/12/15 09:03:43;;;;;;;14.67;8.83;;;3.00;99.90;;;;;;5045413;28;20479;-64
2020/12/15 09:06:09;;;;;;;17.43;10.40;;;2.90;99.90;;;;;;5050922;28;20620;-64
2020/12/15 09:08:48;;;;;;;18.17;10.07;;;3.00;99.90;;;;;;5029327;28;20438;-64
2020/12/15 09:11:15;;;;;;;23.13;11.27;;;3.00;99.90;;;;;;5050659;28;20431;-63
2020/12/15 09:14:18;;;;;;;25.53;12.93;;;3.00;99.90;;;;;;5048261;28;20567;-65
2020/12/15 09:16:45;;;;;;;21.83;13.17;;;3.00;99.90;;;;;;5019407;28;20469;-64
2020/12/15 09:19:16;;;;;;;21.73;12.93;;;3.00;99.90;;;;;;5049805;28;20931;-64
2020/12/15 09:21:56;;;;;;;23.50;13.60;;;3.00;99.90;;;;;;5041180;28;20450;-64
2020/12/15 09:24:21;;;;;;;26.10;12.80;;;3.10;99.90;;;;;;5050396;28;20947;-65
2020/12/15 09:26:48;;;;;;;20.07;12.80;;;3.10;99.90;;;;;;5036232;28;20426;-63
2020/12/15 09:29:14;;;;;;;24.73;12.30;;;3.20;99.90;;;;;;5031698;28;20233;-64
2020/12/15 09:31:40;;;;;;;22.93;11.90;;;3.20;99.90;;;;;;5031082;28;20438;-64
2020/12/15 09:34:07;;;;;;;21.10;11.70;;;3.30;99.90;;;;;;5045937;28;20213;-64
2020/12/15 09:36:34;;;;;;;19.93;11.17;;;3.30;99.90;;;;;;5045214;28;20418;-65
2020/12/15 09:39:00;;;;;;;20.07;10.80;;;3.30;99.90;;;;;;5028204;28;20536;-64
2020/12/15 09:41:26;;;;;;;17.67;10.83;;;3.30;99.90;;;;;;5045118;28;20504;-65
2020/12/15 09:43:52;;;;;;;23.47;11.57;;;3.40;99.90;;;;;;5025721;28;20610;-65
2020/12/15 09:46:19;;;;;;;23.33;11.50;;;3.40;99.90;;;;;;5031472;28;20428;-66
2020/12/15 09:48:45;;;;;;;17.90;10.27;;;3.50;99.90;;;;;;5049836;28;20432;-63
2020/12/15 09:51:12;;;;;;;27.00;11.97;;;3.60;99.90;;;;;;5048966;28;20428;-65
2020/12/15 09:53:38;;;;;;;21.13;10.83;;;3.60;99.90;;;;;;5032373;28;20499;-62
2020/12/15 09:56:04;;;;;;;20.57;10.40;;;3.60;99.90;;;;;;5049201;28;20421;-62
2020/12/15 09:58:30;;;;;;;14.37;8.73;;;3.70;99.90;;;;;;5033453;28;20483;-64
2020/12/15 10:00:57;;;;;;;17.00;9.40;;;3.70;99.90;;;;;;5049607;28;20432;-64
2020/12/15 10:03:23;;;;;;;17.53;8.50;;;3.70;99.90;;;;;;5029932;28;20469;-64
2020/12/15 10:05:49;;;;;;;22.27;10.03;;;3.80;99.90;;;;;;5050095;28;20481;-64
2020/12/15 10:08:16;;;;;;;16.23;9.27;;;3.80;99.90;;;;;;5046678;28;21212;-61
2020/12/15 10:10:43;;;;;;;18.30;10.10;;;3.90;99.90;;;;;;5049838;28;20434;-62
2020/12/15 10:13:10;;;;;;;17.53;9.27;;;3.90;99.90;;;;;;5041314;28;20506;-65
2020/12/15 10:15:36;;;;;;;22.83;10.27;;;4.00;99.90;;;;;;5049835;28;20440;-66
2020/12/15 10:18:04;;;;;;;16.03;8.83;;;4.00;99.90;;;;;;5049526;28;20451;-69
2020/12/15 10:20:30;;;;;;;15.67;10.27;;;4.10;99.90;;;;;;5046909;28;20871;-69
2020/12/15 10:22:55;;;;;;;18.53;9.97;;;4.10;99.90;;;;;;5046586;28;20458;-66
2020/12/15 10:25:22;;;;;;;16.50;10.40;;;4.10;99.90;;;;;;5049558;28;20946;-65
2020/12/15 10:27:50;;;;;;;15.70;10.37;;;4.10;99.90;;;;;;5047021;28;20694;-64
2020/12/15 10:30:17;;;;;;;17.30;10.20;;;4.10;99.90;;;;;;5047179;28;20907;-62
2020/12/15 10:32:43;;;;;;;18.27;9.67;;;4.20;99.90;;;;;;5028554;28;20566;-64
2020/12/15 10:35:09;;;;;;;24.80;11.27;;;4.20;99.90;;;;;;5048558;28;20491;-63
2020/12/15 10:37:35;;;;;;;22.87;12.30;;;4.30;99.90;;;;;;5049566;28;20488;-62
2020/12/15 10:40:03;;;;;;;18.73;11.37;;;4.30;99.90;;;;;;5049120;28;20480;-63
2020/12/15 10:42:29;;;;;;;19.97;11.47;;;4.30;99.90;;;;;;5029319;28;20485;-68
2020/12/15 10:44:56;;;;;;;21.03;10.33;;;4.40;99.90;;;;;;5044081;28;20449;-65
2020/12/15 10:47:22;;;;;;;22.50;12.47;;;4.40;99.90;;;;;;5031184;28;20516;-63
2020/12/15 10:49:47;;;;;;;23.40;12.20;;;4.40;99.90;;;;;;5032829;28;20517;-64
2020/12/15 10:52:15;;;;;;;24.03;10.40;;;4.40;99.90;;;;;;5048792;28;20456;-65
2020/12/15 10:54:41;;;;;;;17.30;9.90;;;4.50;99.90;;;;;;5041049;28;20826;-65
2020/12/15 10:57:07;;;;;;;18.80;9.90;;;4.50;99.90;;;;;;5046842;28;20438;-61
2020/12/15 10:59:33;;;;;;;17.17;8.80;;;4.50;99.90;;;;;;5049208;28;20436;-61
2020/12/15 11:02:00;;;;;;;18.83;9.80;;;4.50;99.90;;;;;;5044810;28;20466;-60
2020/12/15 11:04:26;;;;;;;19.47;9.50;;;4.60;99.90;;;;;;5047317;28;20435;-64
2020/12/15 11:06:53;;;;;;;19.73;9.97;;;4.60;99.90;;;;;;5046373;28;20494;-63
2020/12/15 11:09:19;;;;;;;18.33;10.47;;;4.60;99.90;;;;;;5047764;28;20420;-63
2020/12/15 11:11:46;;;;;;;17.77;9.60;;;4.60;99.90;;;;;;5028657;28;20496;-65
2020/12/15 11:14:13;;;;;;;19.57;11.17;;;4.60;99.90;;;;;;5049530;28;20414;-66
2020/12/15 11:16:40;;;;;;;20.10;10.63;;;4.50;99.90;;;;;;5035635;28;20489;-64
2020/12/15 11:19:06;;;;;;;18.30;10.80;;;4.50;99.90;;;;;;5046141;28;20511;-64
2020/12/15 11:21:32;;;;;;;24.60;11.00;;;4.50;99.90;;;;;;5042663;28;20198;-63
2020/12/15 11:23:57;;;;;;;18.27;9.97;;;4.60;99.90;;;;;;5048464;28;20697;-64
2020/12/15 11:26:23;;;;;;;26.37;12.57;;;4.60;99.90;;;;;;5029603;28;20433;-64
2020/12/15 11:28:49;;;;;;;21.20;12.03;;;4.60;99.90;;;;;;5047177;28;20176;-63
2020/12/15 11:31:15;;;;;;;22.37;12.63;;;4.60;99.90;;;;;;5044575;28;20178;-64
2020/12/15 11:33:42;;;;;;;22.20;12.03;;;4.70;99.90;;;;;;5048967;28;20322;-63
2020/12/15 11:36:08;;;;;;;21.17;11.93;;;4.70;99.90;;;;;;5050959;28;20437;-67
2020/12/15 11:38:34;;;;;;;20.43;11.30;;;4.80;99.90;;;;;;5052071;28;20521;-63
2020/12/15 11:41:00;;;;;;;17.83;11.23;;;4.90;99.90;;;;;;5052578;28;20428;-62
2020/12/15 11:43:28;;;;;;;21.17;12.03;;;4.90;99.90;;;;;;5049324;28;20530;-67
2020/12/15 11:45:54;;;;;;;18.70;11.10;;;4.90;99.90;;;;;;5052596;28;20440;-66
2020/12/15 11:48:20;;;;;;;24.40;11.50;;;4.90;99.90;;;;;;5052600;28;20930;-65
2020/12/15 11:50:46;;;;;;;20.83;10.73;;;4.90;99.90;;;;;;5046300;28;20684;-62
2020/12/15 11:53:12;;;;;;;20.60;12.60;;;4.90;99.90;;;;;;5051093;28;20225;-64
2020/12/15 11:55:38;;;;;;;22.53;13.00;;;4.90;99.90;;;;;;5035237;28;20437;-63
2020/12/15 11:58:04;;;;;;;22.63;13.27;;;4.80;99.90;;;;;;5052160;28;20503;-63
2020/12/15 12:00:30;;;;;;;26.23;14.43;;;4.80;99.90;;;;;;5046691;28;20175;-64
2020/12/15 12:02:55;;;;;;;28.37;14.07;;;4.80;99.90;;;;;;5034016;28;20225;-63
2020/12/15 12:05:21;;;;;;;20.37;12.93;;;4.80;99.90;;;;;;5052416;28;20629;-64
2020/12/15 12:07:47;;;;;;;21.10;12.23;;;4.80;99.90;;;;;;5033494;28;20194;-65
2020/12/15 12:10:13;;;;;;;23.43;12.17;;;4.80;99.90;;;;;;5032675;28;20187;-67
2020/12/15 12:12:40;;;;;;;21.80;12.23;;;4.80;99.90;;;;;;5043402;28;20464;-63
2020/12/15 12:15:06;;;;;;;26.57;13.60;;;4.90;99.90;;;;;;5021990;28;20472;-64
2020/12/15 12:17:32;;;;;;;18.97;12.47;;;4.90;99.90;;;;;;5046830;28;20495;-66
2020/12/15 12:19:57;;;;;;;21.93;12.77;;;4.90;99.90;;;;;;5028717;28;20539;-66
2020/12/15 12:22:23;;;;;;;24.03;13.10;;;5.00;99.90;;;;;;5043732;28;20986;-65
2020/12/15 12:24:49;;;;;;;24.90;13.87;;;5.00;99.90;;;;;;5046565;28;20179;-63
2020/12/15 12:27:14;;;;;;;23.60;12.73;;;5.10;99.90;;;;;;5029271;28;20192;-63
2020/12/15 12:29:43;;;;;;;19.43;12.57;;;5.10;99.90;;;;;;5043806;28;20201;-64
2020/12/15 12:32:09;;;;;;;22.93;12.70;;;5.10;99.90;;;;;;5044956;28;20260;-63
2020/12/15 12:34:35;;;;;;;24.63;13.00;;;5.10;99.90;;;;;;5048748;28;20533;-63
2020/12/15 12:37:02;;;;;;;21.70;12.40;;;5.10;99.90;;;;;;5039029;28;20278;-60
2020/12/15 12:39:32;;;;;;;27.90;14.07;;;5.00;99.90;;;;;;5043501;28;20442;-65
2020/12/15 12:41:58;;;;;;;21.10;13.30;;;5.00;99.90;;;;;;5022538;28;20467;-63
2020/12/15 12:44:24;;;;;;;22.57;13.47;;;5.00;99.90;;;;;;5018722;28;20441;-63
2020/12/15 12:46:51;;;;;;;36.00;15.53;;;5.00;99.90;;;;;;5038102;28;20187;-65